Time;durP1;ratioP1;P1;durP2;ratioP2;P2;SDS_P1;SDS_P2;PMS_P1;PMS_P2;Temp;Humidity;BMP_temperature;BMP_pressure;BME280_temperature;BME280_humidity;BME280_pressure;Samples;Min_cycle;Max_cycle;Signal;HPM_P1;HPM_P2
2022/04/17 00:02:09;;;;;;;2.83;2.63;;;9.10;25.30;;;;;;10379874;28;20230;-72
2022/04/17 00:07:12;;;;;;;2.30;2.10;;;9.00;25.60;;;;;;10379041;28;20316;-72
2022/04/17 00:12:15;;;;;;;2.20;2.00;;;8.90;25.40;;;;;;10380113;28;20233;-71
2022/04/17 00:17:21;;;;;;;3.33;2.70;;;8.80;25.50;;;;;;10380439;28;20233;-72
2022/04/17 00:22:24;;;;;;;3.20;2.60;;;8.70;25.60;;;;;;10376859;28;20234;-72
2022/04/17 00:27:27;;;;;;;3.37;3.07;;;8.60;25.60;;;;;;10377882;28;20233;-72
2022/04/17 00:32:32;;;;;;;3.20;2.90;;;8.60;25.70;;;;;;10375795;28;20222;-72
2022/04/17 00:37:36;;;;;;;5.17;4.10;;;8.60;25.80;;;;;;10376771;28;20226;-72
2022/04/17 00:42:41;;;;;;;4.50;3.33;;;8.50;25.70;;;;;;10375572;28;20218;-72
2022/04/17 00:47:45;;;;;;;4.37;3.97;;;8.50;25.80;;;;;;10378129;28;22472;-71
2022/04/17 00:52:50;;;;;;;5.30;4.80;;;8.40;25.90;;;;;;10373487;28;20957;-72
2022/04/17 00:57:53;;;;;;;4.50;4.10;;;8.40;25.90;;;;;;10376411;28;20284;-72
2022/04/17 01:02:57;;;;;;;4.47;4.07;;;8.30;25.90;;;;;;10380138;28;20237;-72
2022/04/17 01:08:00;;;;;;;4.50;4.03;;;8.30;26.00;;;;;;10374619;28;20242;-72
2022/04/17 01:13:04;;;;;;;4.33;3.50;;;8.20;25.90;;;;;;10376508;28;20231;-72
2022/04/17 01:18:10;;;;;;;4.10;3.30;;;8.10;25.90;;;;;;10375212;28;20760;-71
2022/04/17 01:28:35;;;;;;;3.23;2.93;;;7.90;26.20;;;;;;10373667;28;20901;-71
2022/04/17 01:33:38;;;;;;;3.00;2.80;;;7.80;26.10;;;;;;10380336;28;20227;-72
2022/04/17 01:38:42;;;;;;;2.60;2.40;;;7.80;26.10;;;;;;10373184;28;20790;-71
2022/04/17 01:43:45;;;;;;;3.17;2.93;;;7.70;26.30;;;;;;10371690;28;20231;-71
2022/04/17 01:48:48;;;;;;;2.60;2.40;;;7.60;26.40;;;;;;10378733;28;20225;-74
2022/04/17 01:53:53;;;;;;;3.10;2.60;;;7.50;26.40;;;;;;10374605;28;20234;-71
2022/04/17 01:58:56;;;;;;;2.87;2.60;;;7.50;26.70;;;;;;10372191;28;20226;-74
2022/04/17 02:04:01;;;;;;;2.50;2.30;;;7.50;26.60;;;;;;10374467;28;20235;-73
2022/04/17 02:09:07;;;;;;;3.43;2.50;;;7.50;26.70;;;;;;10377147;28;20230;-72
2022/04/17 02:14:12;;;;;;;2.70;2.50;;;7.50;26.60;;;;;;10374231;28;20232;-72
2022/04/17 02:19:15;;;;;;;2.57;2.37;;;7.40;26.60;;;;;;10380484;28;20248;-72
2022/04/17 02:24:20;;;;;;;2.70;2.50;;;7.40;26.60;;;;;;10384296;28;20852;-72
2022/04/17 02:29:23;;;;;;;3.07;2.57;;;7.30;26.70;;;;;;10378479;28;20238;-74
2022/04/17 02:34:26;;;;;;;3.30;3.10;;;7.30;26.80;;;;;;10385309;28;20234;-72
2022/04/17 02:39:31;;;;;;;2.93;2.73;;;7.30;26.70;;;;;;10378683;28;20233;-72
2022/04/17 02:44:34;;;;;;;2.60;2.40;;;7.20;26.70;;;;;;10378384;28;20904;-72
2022/04/17 02:49:37;;;;;;;3.60;3.30;;;7.20;26.80;;;;;;10380998;28;20230;-72
2022/04/17 02:54:42;;;;;;;3.47;2.87;;;7.10;26.90;;;;;;10378218;28;20230;-72
2022/04/17 02:59:45;;;;;;;3.07;2.80;;;7.10;27.00;;;;;;10379782;28;20276;-72
2022/04/17 03:10:11;;;;;;;3.17;2.50;;;7.00;26.80;;;;;;10380322;28;20222;-72
2022/04/17 03:15:14;;;;;;;2.90;2.63;;;7.00;27.10;;;;;;10380372;28;20883;-72
2022/04/17 03:20:17;;;;;;;2.60;2.40;;;6.90;27.10;;;;;;10380671;28;20225;-72
2022/04/17 03:25:22;;;;;;;2.30;2.10;;;6.90;27.10;;;;;;10380586;28;20232;-72
2022/04/17 03:30:25;;;;;;;2.80;2.60;;;6.90;27.10;;;;;;10378001;28;20230;-72
2022/04/17 03:35:30;;;;;;;2.50;2.30;;;6.80;27.00;;;;;;10379238;28;20999;-72
2022/04/17 03:40:35;;;;;;;2.43;2.30;;;6.80;27.00;;;;;;10381587;28;20288;-72
2022/04/17 03:45:38;;;;;;;2.70;2.50;;;6.80;27.00;;;;;;10379708;28;20232;-72
2022/04/17 03:50:41;;;;;;;2.77;2.57;;;6.80;27.00;;;;;;10382719;28;20907;-72
2022/04/17 03:55:46;;;;;;;3.00;2.70;;;6.70;27.00;;;;;;10378952;28;20593;-72
2022/04/17 04:00:49;;;;;;;2.60;2.40;;;6.70;26.90;;;;;;10376564;28;20218;-72
2022/04/17 04:05:52;;;;;;;2.77;2.57;;;6.60;26.90;;;;;;10382039;28;20230;-72
2022/04/17 04:10:57;;;;;;;2.90;2.70;;;6.60;26.90;;;;;;10378424;28;20254;-71
2022/04/17 04:16:00;;;;;;;3.40;3.10;;;6.50;26.90;;;;;;10377882;28;20240;-72
2022/04/17 04:21:03;;;;;;;2.87;2.67;;;6.50;26.90;;;;;;10380904;28;20225;-71
2022/04/17 04:26:08;;;;;;;2.90;2.60;;;6.50;26.90;;;;;;10373477;28;20252;-72
2022/04/17 04:31:12;;;;;;;3.20;3.00;;;6.40;27.00;;;;;;10373438;28;20257;-72
2022/04/17 04:36:16;;;;;;;4.40;4.00;;;6.40;26.90;;;;;;10375526;28;20238;-71
2022/04/17 04:41:20;;;;;;;3.33;3.03;;;6.30;26.80;;;;;;10376166;28;20230;-71
2022/04/17 04:46:23;;;;;;;4.27;3.87;;;6.20;27.10;;;;;;10374903;28;20230;-71
2022/04/17 04:51:28;;;;;;;4.87;4.00;;;6.10;27.20;;;;;;10375294;28;20226;-71
2022/04/17 04:56:33;;;;;;;3.70;3.40;;;6.10;27.50;;;;;;10374040;28;20233;-71
2022/04/17 05:01:37;;;;;;;3.60;3.30;;;6.00;27.70;;;;;;10375370;28;20254;-71
2022/04/17 05:06:40;;;;;;;3.77;3.37;;;6.00;27.50;;;;;;10376837;28;20234;-71
2022/04/17 05:11:46;;;;;;;3.80;3.50;;;6.00;27.50;;;;;;10378667;28;20222;-74
2022/04/17 05:16:49;;;;;;;4.43;4.03;;;6.10;27.90;;;;;;10373949;28;20275;-74
2022/04/17 05:21:57;;;;;;;4.20;3.80;;;6.10;27.80;;;;;;10376403;28;20226;-72
2022/04/17 05:27:01;;;;;;;4.37;3.97;;;6.10;27.80;;;;;;10375172;28;20905;-72
2022/04/17 05:32:05;;;;;;;4.10;3.70;;;6.10;28.00;;;;;;10378338;28;20253;-72
2022/04/17 05:37:08;;;;;;;3.57;3.27;;;6.10;28.00;;;;;;10372179;28;20234;-72
2022/04/17 05:42:15;;;;;;;4.70;4.30;;;6.10;28.10;;;;;;10370623;28;20711;-72
2022/04/17 05:47:20;;;;;;;4.40;4.00;;;6.10;28.40;;;;;;10372343;28;20321;-72
2022/04/17 05:52:24;;;;;;;4.50;3.90;;;6.10;28.20;;;;;;10381834;28;20225;-72
2022/04/17 05:57:28;;;;;;;3.83;3.37;;;6.10;28.40;;;;;;10380371;28;20234;-72
2022/04/17 06:02:31;;;;;;;3.30;3.00;;;6.20;28.60;;;;;;10386116;28;20229;-74
2022/04/17 06:07:34;;;;;;;3.47;3.17;;;6.30;28.40;;;;;;10380148;28;20226;-72
2022/04/17 06:12:40;;;;;;;3.80;3.50;;;6.30;28.50;;;;;;10382861;28;20230;-72
2022/04/17 06:17:44;;;;;;;3.90;3.50;;;6.40;28.80;;;;;;10381915;28;20240;-72
2022/04/17 06:22:47;;;;;;;3.23;3.03;;;6.50;28.80;;;;;;10383668;28;20244;-72
2022/04/17 06:27:51;;;;;;;4.47;3.03;;;6.60;28.80;;;;;;10380132;28;20713;-72
2022/04/17 06:33:02;;;;;;;4.07;3.03;;;6.60;29.00;;;;;;10375671;28;20661;-73
2022/04/17 06:38:10;;;;;;;3.60;3.10;;;6.70;29.10;;;;;;10385085;28;20245;-73
2022/04/17 06:43:15;;;;;;;2.87;2.67;;;6.80;29.10;;;;;;10378602;28;20710;-72
2022/04/17 06:48:20;;;;;;;3.33;2.63;;;6.90;29.40;;;;;;10378094;28;20241;-73
2022/04/17 06:53:23;;;;;;;2.63;2.43;;;7.10;29.80;;;;;;10387521;28;20920;-73
2022/04/17 06:58:28;;;;;;;2.43;2.33;;;7.20;29.50;;;;;;10375540;28;20230;-72
2022/04/17 07:03:31;;;;;;;2.60;2.40;;;7.40;29.80;;;;;;10376765;28;20233;-72
2022/04/17 07:08:34;;;;;;;2.50;2.30;;;7.60;29.90;;;;;;10376800;28;20734;-72
2022/04/17 07:13:42;;;;;;;2.30;2.10;;;7.80;30.00;;;;;;10384181;28;20222;-72
2022/04/17 07:18:45;;;;;;;2.47;2.10;;;8.00;29.90;;;;;;10377388;28;20233;-72
2022/04/17 07:23:48;;;;;;;2.30;2.07;;;8.30;29.70;;;;;;10382418;28;20237;-72
2022/04/17 07:28:52;;;;;;;2.40;2.20;;;8.60;29.60;;;;;;10383575;28;20807;-72
2022/04/17 07:33:55;;;;;;;2.57;2.20;;;8.90;29.10;;;;;;10376895;28;20225;-72
2022/04/17 07:38:59;;;;;;;2.63;2.30;;;9.20;28.50;;;;;;10379385;28;20798;-72
2022/04/17 07:44:03;;;;;;;2.50;2.30;;;9.60;28.80;;;;;;10377625;28;20226;-75
2022/04/17 07:49:06;;;;;;;2.80;2.43;;;9.90;29.00;;;;;;10378571;28;20241;-72
2022/04/17 07:54:10;;;;;;;2.47;2.27;;;10.20;28.00;;;;;;10374598;28;20233;-73
2022/04/17 07:59:14;;;;;;;3.43;2.20;;;10.50;27.70;;;;;;10379243;28;20249;-72
2022/04/17 08:04:17;;;;;;;2.57;2.37;;;10.80;27.20;;;;;;10380730;28;20280;-72
2022/04/17 08:09:21;;;;;;;2.47;2.27;;;11.00;27.10;;;;;;10377325;28;20576;-72
2022/04/17 08:14:26;;;;;;;3.30;2.50;;;11.30;27.10;;;;;;10376770;28;20745;-72
2022/04/17 08:19:31;;;;;;;2.23;2.10;;;11.50;26.70;;;;;;10377780;28;20226;-72
2022/04/17 08:24:35;;;;;;;2.40;2.20;;;11.70;26.70;;;;;;10375616;28;20226;-72
2022/04/17 08:29:39;;;;;;;2.80;2.30;;;12.00;26.60;;;;;;10373146;28;20241;-72
2022/04/17 08:34:42;;;;;;;2.53;2.33;;;12.20;25.80;;;;;;10375748;28;20239;-72
2022/04/17 08:39:45;;;;;;;2.47;2.27;;;12.40;26.10;;;;;;10375751;28;20245;-72
2022/04/17 08:44:51;;;;;;;2.00;1.90;;;12.60;26.10;;;;;;10372897;28;20226;-72
2022/04/17 08:49:55;;;;;;;2.30;2.10;;;12.90;25.70;;;;;;10374731;28;20233;-72
2022/04/17 08:55:00;;;;;;;2.43;2.23;;;13.10;25.60;;;;;;10374449;28;20233;-72
2022/04/17 09:00:08;;;;;;;2.63;2.30;;;13.30;25.20;;;;;;10376159;28;20222;-72
2022/04/17 09:05:21;;;;;;;2.80;2.60;;;13.40;24.60;;;;;;10374263;28;20227;-72
2022/04/17 09:10:26;;;;;;;2.50;2.30;;;13.50;23.40;;;;;;10373977;28;20304;-72
2022/04/17 09:15:32;;;;;;;2.07;1.93;;;13.50;24.50;;;;;;10373874;28;20222;-72
2022/04/17 09:20:36;;;;;;;2.37;2.07;;;13.60;23.50;;;;;;10376319;28;20217;-72
2022/04/17 09:25:39;;;;;;;2.30;2.10;;;13.70;24.40;;;;;;10377742;28;20233;-72
2022/04/17 09:30:45;;;;;;;2.50;2.30;;;13.80;24.40;;;;;;10385998;28;20229;-72
2022/04/17 09:35:55;;;;;;;2.10;1.90;;;14.00;24.00;;;;;;10381424;28;21021;-73
2022/04/17 09:41:05;;;;;;;2.97;2.30;;;14.20;23.60;;;;;;10381785;28;20226;-72
2022/04/17 09:46:10;;;;;;;2.40;2.20;;;14.30;23.10;;;;;;10384831;28;20609;-73
2022/04/17 09:51:22;;;;;;;2.50;2.30;;;14.50;23.70;;;;;;10382671;28;20230;-73
2022/04/17 09:56:34;;;;;;;2.07;1.90;;;14.60;23.00;;;;;;10381209;28;20877;-73
2022/04/17 10:01:38;;;;;;;2.20;2.00;;;14.70;22.90;;;;;;10383657;28;20257;-72
2022/04/17 10:06:42;;;;;;;2.40;1.93;;;14.80;23.50;;;;;;10380727;28;20222;-73
2022/04/17 10:11:45;;;;;;;2.13;1.93;;;14.90;23.70;;;;;;10384696;28;20222;-72
2022/04/17 10:16:55;;;;;;;2.30;2.10;;;15.10;23.40;;;;;;10386339;28;20257;-73
2022/04/17 10:22:01;;;;;;;2.30;2.10;;;15.20;22.70;;;;;;10380981;28;20222;-73
2022/04/17 10:27:06;;;;;;;2.23;2.03;;;15.30;22.10;;;;;;10378679;28;20225;-73
2022/04/17 10:32:42;;;;;;;2.40;2.20;;;15.30;22.10;;;;;;10383377;28;20230;-72
2022/04/17 10:38:19;;;;;;;2.27;2.10;;;15.20;19.80;;;;;;10339456;28;20235;-72
2022/04/17 10:43:23;;;;;;;2.37;2.13;;;15.10;19.70;;;;;;10376133;28;20236;-72
2022/04/17 10:48:29;;;;;;;2.90;2.70;;;15.00;21.90;;;;;;10379367;28;20234;-73
2022/04/17 10:53:32;;;;;;;2.40;2.20;;;15.10;21.50;;;;;;10385581;28;20224;-73
2022/04/17 10:58:37;;;;;;;2.27;2.07;;;15.10;22.00;;;;;;10375350;28;20591;-73
2022/04/17 11:03:52;;;;;;;2.50;2.30;;;15.10;22.00;;;;;;10378839;28;20761;-72
2022/04/17 11:08:58;;;;;;;2.60;2.40;;;15.30;21.40;;;;;;10379921;28;20230;-73
2022/04/17 11:14:12;;;;;;;3.13;2.40;;;15.40;22.20;;;;;;10383587;28;20230;-72
2022/04/17 11:19:18;;;;;;;2.60;2.40;;;15.60;21.40;;;;;;10377791;28;20309;-73
2022/04/17 11:24:22;;;;;;;2.10;2.00;;;15.80;21.60;;;;;;10378592;28;20229;-73
2022/04/17 11:29:35;;;;;;;2.73;2.10;;;15.90;22.10;;;;;;10378338;28;20620;-73
2022/04/17 11:34:44;;;;;;;2.20;2.10;;;15.90;20.60;;;;;;10375233;28;20231;-73
2022/04/17 11:39:47;;;;;;;2.50;2.20;;;16.00;20.90;;;;;;10375622;28;20232;-73
2022/04/17 11:44:50;;;;;;;2.10;1.90;;;16.00;21.30;;;;;;10376551;28;20728;-73
2022/04/17 11:49:55;;;;;;;2.67;2.03;;;16.10;21.20;;;;;;10379957;28;20244;-73
2022/04/17 11:55:01;;;;;;;2.00;1.90;;;16.10;21.30;;;;;;10378549;28;20238;-73
2022/04/17 12:00:05;;;;;;;2.37;2.17;;;16.20;21.10;;;;;;10380533;28;20231;-73
2022/04/17 12:05:12;;;;;;;2.63;2.23;;;16.20;21.20;;;;;;10377624;28;20233;-72
2022/04/17 12:10:16;;;;;;;2.27;2.13;;;16.30;21.00;;;;;;10379761;28;20241;-73
2022/04/17 12:15:20;;;;;;;2.63;2.30;;;16.30;21.40;;;;;;10373201;28;20323;-73
2022/04/17 12:20:26;;;;;;;2.43;2.00;;;16.40;21.60;;;;;;10376139;28;20226;-73
2022/04/17 12:25:29;;;;;;;2.20;2.00;;;16.40;20.90;;;;;;10378910;28;20244;-73
2022/04/17 12:30:33;;;;;;;2.30;2.10;;;16.40;21.10;;;;;;10375675;28;20237;-73
2022/04/17 12:35:40;;;;;;;2.30;2.10;;;16.40;21.20;;;;;;10380759;28;20241;-73
2022/04/17 12:40:44;;;;;;;2.60;2.40;;;16.40;20.80;;;;;;10373881;28;20638;-73
2022/04/17 12:45:59;;;;;;;2.57;2.20;;;16.50;20.80;;;;;;10373935;28;20221;-73
2022/04/17 12:51:06;;;;;;;2.30;2.20;;;16.50;19.80;;;;;;10375140;28;20241;-74
2022/04/17 12:56:10;;;;;;;2.30;2.10;;;16.60;20.30;;;;;;10375048;28;20230;-73
2022/04/17 13:01:22;;;;;;;1.87;1.77;;;16.50;20.50;;;;;;10377131;28;20238;-73
2022/04/17 13:06:32;;;;;;;2.37;2.17;;;16.50;20.40;;;;;;10372385;28;20272;-73
2022/04/17 13:11:36;;;;;;;2.63;2.20;;;16.50;20.60;;;;;;10375353;28;20225;-73
2022/04/17 13:16:52;;;;;;;2.70;2.10;;;16.60;20.70;;;;;;10371903;28;20595;-73
2022/04/17 13:21:59;;;;;;;2.33;2.13;;;16.60;19.70;;;;;;10371443;28;20288;-73
2022/04/17 13:27:02;;;;;;;2.07;1.90;;;16.70;20.50;;;;;;10371904;28;20592;-73
2022/04/17 13:32:09;;;;;;;2.60;1.80;;;16.70;20.60;;;;;;10372615;28;20237;-73
2022/04/17 13:42:38;;;;;;;2.10;2.00;;;16.80;20.00;;;;;;10372309;28;20577;-73
2022/04/17 13:47:43;;;;;;;2.33;2.00;;;16.80;20.20;;;;;;10372103;28;20234;-73
2022/04/17 13:52:47;;;;;;;1.83;1.73;;;16.70;20.10;;;;;;10374897;28;20573;-73
2022/04/17 13:57:51;;;;;;;2.37;1.93;;;16.70;19.60;;;;;;10373509;28;20236;-73
2022/04/17 14:02:54;;;;;;;2.63;1.87;;;16.80;20.10;;;;;;10380011;28;20304;-73
2022/04/17 14:07:59;;;;;;;2.17;1.90;;;16.80;20.20;;;;;;10375091;28;20272;-73
2022/04/17 14:13:03;;;;;;;1.87;1.70;;;16.90;19.80;;;;;;10384251;28;20264;-75
2022/04/17 14:18:06;;;;;;;1.80;1.70;;;16.90;19.70;;;;;;10384752;28;20296;-75
2022/04/17 14:23:11;;;;;;;1.90;1.80;;;16.90;19.70;;;;;;10379023;28;20229;-75
2022/04/17 14:28:15;;;;;;;1.90;1.80;;;16.80;19.40;;;;;;10376157;28;20230;-74
2022/04/17 14:33:18;;;;;;;1.90;1.80;;;16.80;19.60;;;;;;10384330;28;20706;-74
2022/04/17 14:38:22;;;;;;;2.07;1.70;;;16.80;19.80;;;;;;10378950;28;20226;-74
2022/04/17 14:43:26;;;;;;;2.00;1.87;;;16.90;19.50;;;;;;10375934;28;20229;-74
2022/04/17 14:48:29;;;;;;;1.80;1.70;;;16.90;19.60;;;;;;10380976;28;20230;-74
2022/04/17 14:53:33;;;;;;;2.07;1.90;;;17.00;19.70;;;;;;10382498;28;20233;-74
2022/04/17 14:58:37;;;;;;;2.10;1.70;;;17.00;19.40;;;;;;10382329;28;20320;-74
2022/04/17 15:03:42;;;;;;;1.97;1.87;;;17.00;19.60;;;;;;10378784;28;20241;-74
2022/04/17 15:08:46;;;;;;;1.87;1.70;;;17.00;19.60;;;;;;10378325;28;20222;-74
2022/04/17 15:13:55;;;;;;;1.70;1.60;;;17.10;19.10;;;;;;10382453;28;20222;-74
2022/04/17 15:18:59;;;;;;;2.07;1.50;;;17.10;19.40;;;;;;10384810;28;20268;-74
2022/04/17 15:24:04;;;;;;;1.60;1.50;;;17.10;19.20;;;;;;10381278;28;20226;-75
2022/04/17 15:29:07;;;;;;;1.60;1.50;;;17.10;18.80;;;;;;10378639;28;20226;-74
2022/04/17 15:34:11;;;;;;;1.77;1.67;;;17.00;18.60;;;;;;10379329;28;20229;-74
2022/04/17 15:39:15;;;;;;;1.53;1.43;;;16.90;18.70;;;;;;10379974;28;20233;-74
2022/04/17 15:49:39;;;;;;;1.83;1.60;;;16.80;18.70;;;;;;10377232;28;20260;-74
2022/04/17 15:54:43;;;;;;;1.90;1.80;;;16.90;18.70;;;;;;10380273;28;20824;-74
2022/04/17 15:59:47;;;;;;;2.03;1.60;;;16.90;18.30;;;;;;10380101;28;20218;-74
2022/04/17 16:04:51;;;;;;;2.07;1.87;;;17.00;18.70;;;;;;10379139;28;20727;-74
2022/04/17 16:09:56;;;;;;;2.00;1.80;;;16.90;18.70;;;;;;10378204;28;20232;-74
2022/04/17 16:14:59;;;;;;;1.97;1.67;;;16.90;18.60;;;;;;10375179;28;20730;-74
2022/04/17 16:20:03;;;;;;;1.70;1.50;;;16.90;18.70;;;;;;10378114;28;20226;-75
2022/04/17 16:25:10;;;;;;;1.73;1.63;;;17.00;18.80;;;;;;10372918;28;20240;-75
2022/04/17 16:30:13;;;;;;;2.17;1.80;;;17.00;18.40;;;;;;10375060;28;20738;-74
2022/04/17 16:35:16;;;;;;;1.93;1.80;;;17.10;18.60;;;;;;10376748;28;20229;-74
2022/04/17 16:40:21;;;;;;;1.83;1.70;;;17.10;18.70;;;;;;10375308;28;20229;-74
2022/04/17 16:45:25;;;;;;;1.80;1.70;;;17.10;18.30;;;;;;10372945;28;20234;-74
2022/04/17 16:50:28;;;;;;;2.03;1.83;;;17.10;18.40;;;;;;10374343;28;20305;-74
2022/04/17 16:55:32;;;;;;;1.70;1.60;;;17.10;18.50;;;;;;10376360;28;20237;-74
2022/04/17 17:00:35;;;;;;;1.90;1.80;;;17.20;18.20;;;;;;10375708;28;20225;-74
2022/04/17 17:05:39;;;;;;;1.80;1.70;;;17.20;18.30;;;;;;10374779;28;20242;-74
2022/04/17 17:10:43;;;;;;;1.63;1.53;;;17.10;18.20;;;;;;10373395;28;20706;-74
2022/04/17 17:15:46;;;;;;;2.13;1.93;;;17.10;18.00;;;;;;10379700;28;20232;-74
2022/04/17 17:20:50;;;;;;;2.30;1.77;;;17.00;18.30;;;;;;10373658;28;20357;-74
2022/04/17 17:25:55;;;;;;;1.57;1.47;;;17.00;18.30;;;;;;10378186;28;20234;-74
2022/04/17 17:30:59;;;;;;;2.10;1.90;;;16.90;18.00;;;;;;10374810;28;20237;-75
2022/04/17 17:36:05;;;;;;;1.90;1.70;;;16.70;18.10;;;;;;10375396;28;20260;-75
2022/04/17 17:41:10;;;;;;;1.70;1.60;;;16.60;18.10;;;;;;10376415;28;20233;-75
2022/04/17 17:46:15;;;;;;;1.50;1.40;;;16.50;17.90;;;;;;10379467;28;20240;-74
2022/04/17 17:51:19;;;;;;;2.07;1.87;;;16.30;18.10;;;;;;10380827;28;20226;-74
2022/04/17 17:56:23;;;;;;;2.07;1.93;;;16.20;18.10;;;;;;10380593;28;21388;-74
2022/04/17 18:01:26;;;;;;;2.00;1.87;;;16.20;18.20;;;;;;10375394;28;20237;-74
2022/04/17 18:06:30;;;;;;;2.23;2.03;;;16.10;18.40;;;;;;10382995;28;20242;-74
2022/04/17 18:16:55;;;;;;;3.97;2.90;;;16.10;18.40;;;;;;10381998;28;20720;-74
2022/04/17 18:27:21;;;;;;;3.90;2.77;;;16.10;18.70;;;;;;10381186;28;20230;-74
2022/04/17 18:32:24;;;;;;;3.57;2.70;;;16.00;18.60;;;;;;10381043;28;20649;-74
2022/04/17 18:37:28;;;;;;;2.50;2.30;;;16.00;18.80;;;;;;10377951;28;20725;-74
2022/04/17 18:42:33;;;;;;;2.40;2.20;;;15.90;18.90;;;;;;10381113;28;20226;-74
2022/04/17 18:47:37;;;;;;;2.40;2.20;;;15.80;19.00;;;;;;10379972;28;20226;-74
2022/04/17 18:52:41;;;;;;;2.77;2.10;;;15.70;19.10;;;;;;10384710;28;20245;-74
2022/04/17 18:57:46;;;;;;;1.80;1.70;;;15.60;19.20;;;;;;10379191;28;20265;-74
2022/04/17 19:02:50;;;;;;;2.83;1.60;;;15.50;19.40;;;;;;10379674;28;20313;-74
2022/04/17 19:07:55;;;;;;;1.70;1.60;;;15.40;19.40;;;;;;10380789;28;20567;-74
2022/04/17 19:18:25;;;;;;;3.60;2.87;;;15.10;19.60;;;;;;10382694;28;20219;-74
2022/04/17 19:23:28;;;;;;;3.00;2.70;;;15.00;19.70;;;;;;10379680;28;20249;-74
2022/04/17 19:28:35;;;;;;;3.30;3.10;;;14.90;19.60;;;;;;10375918;28;20228;-75
2022/04/17 19:38:58;;;;;;;2.57;2.37;;;14.70;19.80;;;;;;10378525;28;20581;-74
2022/04/17 19:44:03;;;;;;;2.00;1.90;;;14.50;19.70;;;;;;10379369;28;20221;-75
2022/04/17 19:49:06;;;;;;;2.13;1.83;;;14.40;19.70;;;;;;10377007;28;20240;-75
2022/04/17 19:54:10;;;;;;;1.70;1.60;;;14.30;19.80;;;;;;10375027;28;20222;-75
2022/04/17 19:59:14;;;;;;;2.53;2.20;;;14.20;20.00;;;;;;10377429;28;20228;-75
2022/04/17 20:04:17;;;;;;;3.63;3.33;;;14.00;20.00;;;;;;10381518;28;20226;-74
2022/04/17 20:09:21;;;;;;;3.33;3.07;;;13.90;20.00;;;;;;10378180;28;20229;-75
2022/04/17 20:14:25;;;;;;;3.83;3.53;;;13.70;20.00;;;;;;10373918;28;20234;-75
2022/04/17 20:19:28;;;;;;;4.80;3.60;;;13.60;20.30;;;;;;10380596;28;20221;-74
2022/04/17 20:24:32;;;;;;;3.53;3.23;;;13.50;20.30;;;;;;10375311;28;20229;-74
2022/04/17 20:29:37;;;;;;;3.23;2.93;;;13.40;20.40;;;;;;10380039;28;20236;-74
2022/04/17 20:34:40;;;;;;;3.40;3.10;;;13.30;20.80;;;;;;10376448;28;20230;-74
2022/04/17 20:39:44;;;;;;;4.80;4.40;;;13.20;20.70;;;;;;10377658;28;20594;-74
2022/04/17 20:55:31;;;;;;;18.43;15.80;;;12.70;20.40;;;;;;10373205;28;20240;-74
2022/04/17 21:00:35;;;;;;;14.30;12.87;;;12.40;20.20;;;;;;10373210;28;20324;-74
2022/04/17 21:05:38;;;;;;;15.27;13.53;;;12.10;20.40;;;;;;10371268;28;20230;-75
2022/04/17 21:10:47;;;;;;;14.83;11.53;;;11.90;20.50;;;;;;10369032;28;20638;-74
2022/04/17 21:15:51;;;;;;;10.63;7.83;;;11.80;20.80;;;;;;10375842;28;20233;-75
2022/04/17 21:20:54;;;;;;;10.53;7.23;;;11.70;20.90;;;;;;10375651;28;20230;-74
2022/04/17 21:25:58;;;;;;;5.40;4.90;;;11.70;20.90;;;;;;10375743;28;20240;-74
2022/04/17 21:31:02;;;;;;;7.00;5.37;;;11.60;21.00;;;;;;10376053;28;20230;-74
2022/04/17 21:36:06;;;;;;;5.87;5.07;;;11.60;21.20;;;;;;10375167;28;20226;-74
2022/04/17 21:41:09;;;;;;;4.80;4.30;;;11.50;21.10;;;;;;10375870;28;20221;-74
2022/04/17 21:46:14;;;;;;;4.20;3.80;;;11.40;21.10;;;;;;10379706;28;20238;-74
2022/04/17 21:51:17;;;;;;;4.87;4.20;;;11.30;21.30;;;;;;10377868;28;20234;-74
2022/04/17 21:56:20;;;;;;;4.63;4.23;;;11.30;21.40;;;;;;10373168;28;20230;-73
2022/04/17 22:06:45;;;;;;;4.20;3.57;;;11.20;21.60;;;;;;10374391;28;20303;-74
2022/04/17 22:11:49;;;;;;;4.10;3.70;;;11.10;21.40;;;;;;10379081;28;20227;-74
2022/04/17 22:16:56;;;;;;;3.87;3.40;;;11.00;21.60;;;;;;10375431;28;20233;-73
2022/04/17 22:21:59;;;;;;;5.37;4.87;;;11.00;21.80;;;;;;10374286;28;20234;-74
2022/04/17 22:27:02;;;;;;;5.63;4.77;;;10.90;21.40;;;;;;10372357;28;20232;-74
2022/04/17 22:32:07;;;;;;;6.40;5.60;;;10.70;21.30;;;;;;10379646;28;20236;-74
2022/04/17 22:37:10;;;;;;;4.40;4.00;;;10.50;21.70;;;;;;10378625;28;20230;-74
2022/04/17 22:42:14;;;;;;;4.00;3.03;;;10.50;21.60;;;;;;10378781;28;20234;-73
2022/04/17 22:47:18;;;;;;;3.33;3.03;;;10.30;21.50;;;;;;10382343;28;20345;-73
2022/04/17 22:52:21;;;;;;;3.63;3.23;;;10.10;21.80;;;;;;10385445;28;20259;-74
2022/04/17 22:57:24;;;;;;;3.50;3.20;;;10.00;21.70;;;;;;10381555;28;20229;-73
2022/04/17 23:02:29;;;;;;;4.00;3.30;;;9.90;22.50;;;;;;10384882;28;20554;-74
2022/04/17 23:07:32;;;;;;;3.40;3.10;;;9.80;22.80;;;;;;10378956;28;20268;-74
2022/04/17 23:12:35;;;;;;;3.17;2.73;;;9.70;22.80;;;;;;10383642;28;20712;-74
2022/04/17 23:17:40;;;;;;;3.53;3.00;;;9.50;22.80;;;;;;10378568;28;20234;-74
2022/04/17 23:22:43;;;;;;;3.33;2.77;;;9.40;23.20;;;;;;10381418;28;20234;-74
2022/04/17 23:27:46;;;;;;;4.90;3.20;;;9.40;23.00;;;;;;10376527;28;20222;-74
2022/04/17 23:32:51;;;;;;;3.33;3.03;;;9.30;23.10;;;;;;10381116;28;20618;-74
2022/04/17 23:37:55;;;;;;;3.70;3.23;;;9.20;23.30;;;;;;10380481;28;20226;-74
2022/04/17 23:42:58;;;;;;;4.03;2.87;;;9.20;23.40;;;;;;10381289;28;20395;-74
2022/04/17 23:48:03;;;;;;;3.23;2.93;;;9.10;23.40;;;;;;10375059;28;20236;-73
2022/04/17 23:53:06;;;;;;;3.53;2.70;;;9.10;23.50;;;;;;10389448;28;20221;-73
2022/04/17 23:58:09;;;;;;;3.60;2.50;;;9.10;23.40;;;;;;10382895;28;20234;-74
